sensor_id;sensor_type;location;lat;lon;timestamp;temperature;humidity
6379;DHT22;3222;48.858;10.128;2024-02-28T00:00:27;7.10;99.90
6379;DHT22;3222;48.858;10.128;2024-02-28T00:02:53;7.10;99.90
6379;DHT22;3222;48.858;10.128;2024-02-28T00:05:19;7.10;99.90
6379;DHT22;3222;48.858;10.128;2024-02-28T00:07:44;7.10;99.90
6379;DHT22;3222;48.858;10.128;2024-02-28T00:10:11;7.10;99.90
6379;DHT22;3222;48.858;10.128;2024-02-28T00:12:38;7.00;99.90
6379;DHT22;3222;48.858;10.128;2024-02-28T00:15:05;7.00;99.90
6379;DHT22;3222;48.858;10.128;2024-02-28T00:17:31;7.00;99.90
6379;DHT22;3222;48.858;10.128;2024-02-28T00:19:56;7.00;99.90
6379;DHT22;3222;48.858;10.128;2024-02-28T00:22:22;6.90;99.90
6379;DHT22;3222;48.858;10.128;2024-02-28T00:24:48;7.00;99.90
6379;DHT22;3222;48.858;10.128;2024-02-28T00:27:13;6.90;99.90
6379;DHT22;3222;48.858;10.128;2024-02-28T00:29:39;6.90;99.90
6379;DHT22;3222;48.858;10.128;2024-02-28T00:32:05;6.90;99.90
6379;DHT22;3222;48.858;10.128;2024-02-28T00:34:31;6.90;99.90
6379;DHT22;3222;48.858;10.128;2024-02-28T00:36:57;6.90;99.90
6379;DHT22;3222;48.858;10.128;2024-02-28T00:39:22;6.80;99.90
6379;DHT22;3222;48.858;10.128;2024-02-28T00:41:48;6.90;99.90
6379;DHT22;3222;48.858;10.128;2024-02-28T00:44:14;6.90;99.90
6379;DHT22;3222;48.858;10.128;2024-02-28T00:46:40;6.90;99.90
6379;DHT22;3222;48.858;10.128;2024-02-28T00:49:05;6.90;99.90
6379;DHT22;3222;48.858;10.128;2024-02-28T00:51:31;6.90;99.90
6379;DHT22;3222;48.858;10.128;2024-02-28T00:53:57;6.90;99.90
6379;DHT22;3222;48.858;10.128;2024-02-28T00:56:22;6.90;99.90
6379;DHT22;3222;48.858;10.128;2024-02-28T00:58:49;6.90;99.90
6379;DHT22;3222;48.858;10.128;2024-02-28T01:01:15;6.90;99.90
6379;DHT22;3222;48.858;10.128;2024-02-28T01:03:41;6.90;99.90
6379;DHT22;3222;48.858;10.128;2024-02-28T01:06:06;6.90;99.90
6379;DHT22;3222;48.858;10.128;2024-02-28T01:08:32;6.90;99.90
6379;DHT22;3222;48.858;10.128;2024-02-28T01:10:58;6.80;99.90
6379;DHT22;3222;48.858;10.128;2024-02-28T01:13:24;6.90;99.90
6379;DHT22;3222;48.858;10.128;2024-02-28T01:15:50;6.80;99.90
6379;DHT22;3222;48.858;10.128;2024-02-28T01:18:15;6.80;99.90
6379;DHT22;3222;48.858;10.128;2024-02-28T01:20:41;6.80;99.90
6379;DHT22;3222;48.858;10.128;2024-02-28T01:23:07;6.80;99.90
6379;DHT22;3222;48.858;10.128;2024-02-28T01:25:32;6.80;99.90
6379;DHT22;3222;48.858;10.128;2024-02-28T01:27:58;6.80;99.90
6379;DHT22;3222;48.858;10.128;2024-02-28T01:30:24;6.80;99.90
6379;DHT22;3222;48.858;10.128;2024-02-28T01:32:50;6.80;99.90
6379;DHT22;3222;48.858;10.128;2024-02-28T01:35:16;6.70;99.90
6379;DHT22;3222;48.858;10.128;2024-02-28T01:37:41;6.80;99.90
6379;DHT22;3222;48.858;10.128;2024-02-28T01:40:08;6.80;99.90
6379;DHT22;3222;48.858;10.128;2024-02-28T01:42:33;6.70;99.90
6379;DHT22;3222;48.858;10.128;2024-02-28T01:44:59;6.70;99.90
6379;DHT22;3222;48.858;10.128;2024-02-28T01:47:25;6.60;99.90
6379;DHT22;3222;48.858;10.128;2024-02-28T01:49:50;6.60;99.90
6379;DHT22;3222;48.858;10.128;2024-02-28T01:52:17;6.70;99.90
6379;DHT22;3222;48.858;10.128;2024-02-28T01:54:43;6.70;99.90
6379;DHT22;3222;48.858;10.128;2024-02-28T01:57:09;6.60;99.90
6379;DHT22;3222;48.858;10.128;2024-02-28T01:59:36;6.60;99.90
6379;DHT22;3222;48.858;10.128;2024-02-28T02:02:02;6.60;99.90
6379;DHT22;3222;48.858;10.128;2024-02-28T02:04:28;6.60;99.90
6379;DHT22;3222;48.858;10.128;2024-02-28T02:06:54;6.60;99.90
6379;DHT22;3222;48.858;10.128;2024-02-28T02:09:20;6.50;99.90
6379;DHT22;3222;48.858;10.128;2024-02-28T02:11:46;6.50;99.90
6379;DHT22;3222;48.858;10.128;2024-02-28T02:14:11;6.50;99.90
6379;DHT22;3222;48.858;10.128;2024-02-28T02:16:38;6.50;99.90
6379;DHT22;3222;48.858;10.128;2024-02-28T02:19:04;6.50;99.90
6379;DHT22;3222;48.858;10.128;2024-02-28T02:21:30;6.50;99.90
6379;DHT22;3222;48.858;10.128;2024-02-28T02:23:56;6.50;99.90
6379;DHT22;3222;48.858;10.128;2024-02-28T02:26:22;6.50;99.90
6379;DHT22;3222;48.858;10.128;2024-02-28T02:28:48;6.50;99.90
6379;DHT22;3222;48.858;10.128;2024-02-28T02:31:14;6.50;99.90
6379;DHT22;3222;48.858;10.128;2024-02-28T02:33:40;6.50;99.90
6379;DHT22;3222;48.858;10.128;2024-02-28T02:36:05;6.50;99.90
6379;DHT22;3222;48.858;10.128;2024-02-28T02:38:31;6.60;99.90
6379;DHT22;3222;48.858;10.128;2024-02-28T02:40:57;6.60;99.90
6379;DHT22;3222;48.858;10.128;2024-02-28T02:43:23;6.50;99.90
6379;DHT22;3222;48.858;10.128;2024-02-28T02:45:48;6.50;99.90
6379;DHT22;3222;48.858;10.128;2024-02-28T02:48:14;6.50;99.90
6379;DHT22;3222;48.858;10.128;2024-02-28T02:50:40;6.50;99.90
6379;DHT22;3222;48.858;10.128;2024-02-28T02:53:09;6.50;99.90
6379;DHT22;3222;48.858;10.128;2024-02-28T02:55:34;6.60;99.90
6379;DHT22;3222;48.858;10.128;2024-02-28T02:58:00;6.50;99.90
6379;DHT22;3222;48.858;10.128;2024-02-28T03:00:26;6.60;99.90
6379;DHT22;3222;48.858;10.128;2024-02-28T03:02:51;6.70;99.90
6379;DHT22;3222;48.858;10.128;2024-02-28T03:05:17;6.50;99.90
6379;DHT22;3222;48.858;10.128;2024-02-28T03:07:43;6.50;99.90
6379;DHT22;3222;48.858;10.128;2024-02-28T03:10:09;6.50;99.90
6379;DHT22;3222;48.858;10.128;2024-02-28T03:12:36;6.50;99.90
6379;DHT22;3222;48.858;10.128;2024-02-28T03:15:02;6.40;99.90
6379;DHT22;3222;48.858;10.128;2024-02-28T03:17:28;6.40;99.90
6379;DHT22;3222;48.858;10.128;2024-02-28T03:19:54;6.40;99.90
6379;DHT22;3222;48.858;10.128;2024-02-28T03:22:20;6.50;99.90
6379;DHT22;3222;48.858;10.128;2024-02-28T03:24:45;6.40;99.90
6379;DHT22;3222;48.858;10.128;2024-02-28T03:27:11;6.40;99.90
6379;DHT22;3222;48.858;10.128;2024-02-28T03:29:37;6.50;99.90
6379;DHT22;3222;48.858;10.128;2024-02-28T03:32:03;6.40;99.90
6379;DHT22;3222;48.858;10.128;2024-02-28T03:34:29;6.50;99.90
6379;DHT22;3222;48.858;10.128;2024-02-28T03:36:55;6.50;99.90
6379;DHT22;3222;48.858;10.128;2024-02-28T03:39:21;6.40;99.90
6379;DHT22;3222;48.858;10.128;2024-02-28T03:41:46;6.40;99.90
6379;DHT22;3222;48.858;10.128;2024-02-28T03:44:12;6.40;99.90
6379;DHT22;3222;48.858;10.128;2024-02-28T03:46:37;6.40;99.90
6379;DHT22;3222;48.858;10.128;2024-02-28T03:49:03;6.50;99.90
6379;DHT22;3222;48.858;10.128;2024-02-28T03:51:29;6.60;99.90
6379;DHT22;3222;48.858;10.128;2024-02-28T03:53:57;6.50;99.90
6379;DHT22;3222;48.858;10.128;2024-02-28T03:56:23;6.60;99.90
6379;DHT22;3222;48.858;10.128;2024-02-28T03:58:50;6.50;99.90
6379;DHT22;3222;48.858;10.128;2024-02-28T04:01:16;6.50;99.90
6379;DHT22;3222;48.858;10.128;2024-02-28T04:03:42;6.50;99.90
6379;DHT22;3222;48.858;10.128;2024-02-28T04:06:08;6.40;99.90
6379;DHT22;3222;48.858;10.128;2024-02-28T04:08:33;6.50;99.90
6379;DHT22;3222;48.858;10.128;2024-02-28T04:10:59;6.40;99.90
6379;DHT22;3222;48.858;10.128;2024-02-28T04:13:25;6.40;99.90
6379;DHT22;3222;48.858;10.128;2024-02-28T04:15:51;6.40;99.90
6379;DHT22;3222;48.858;10.128;2024-02-28T04:18:17;6.40;99.90
6379;DHT22;3222;48.858;10.128;2024-02-28T04:20:42;6.50;99.90
6379;DHT22;3222;48.858;10.128;2024-02-28T04:23:08;6.50;99.90
6379;DHT22;3222;48.858;10.128;2024-02-28T04:25:34;6.50;99.90
6379;DHT22;3222;48.858;10.128;2024-02-28T04:28:00;6.50;99.90
6379;DHT22;3222;48.858;10.128;2024-02-28T04:30:26;6.60;99.90
6379;DHT22;3222;48.858;10.128;2024-02-28T04:32:51;6.50;99.90
6379;DHT22;3222;48.858;10.128;2024-02-28T04:35:17;6.50;99.90
6379;DHT22;3222;48.858;10.128;2024-02-28T04:37:45;6.50;99.90
6379;DHT22;3222;48.858;10.128;2024-02-28T04:40:11;6.50;99.90
6379;DHT22;3222;48.858;10.128;2024-02-28T04:42:37;6.40;99.90
6379;DHT22;3222;48.858;10.128;2024-02-28T04:45:04;6.40;99.90
6379;DHT22;3222;48.858;10.128;2024-02-28T04:47:30;6.40;99.90
6379;DHT22;3222;48.858;10.128;2024-02-28T04:49:56;6.40;99.90
6379;DHT22;3222;48.858;10.128;2024-02-28T04:52:22;6.30;99.90
6379;DHT22;3222;48.858;10.128;2024-02-28T04:54:48;6.30;99.90
6379;DHT22;3222;48.858;10.128;2024-02-28T04:57:14;6.30;99.90
6379;DHT22;3222;48.858;10.128;2024-02-28T04:59:42;6.30;99.90
6379;DHT22;3222;48.858;10.128;2024-02-28T05:02:08;6.30;99.90
6379;DHT22;3222;48.858;10.128;2024-02-28T05:04:34;6.30;99.90
6379;DHT22;3222;48.858;10.128;2024-02-28T05:07:01;6.30;99.90
6379;DHT22;3222;48.858;10.128;2024-02-28T05:09:26;6.30;99.90
6379;DHT22;3222;48.858;10.128;2024-02-28T05:11:52;6.30;99.90
6379;DHT22;3222;48.858;10.128;2024-02-28T05:14:18;6.30;99.90
6379;DHT22;3222;48.858;10.128;2024-02-28T05:16:44;6.20;99.90
6379;DHT22;3222;48.858;10.128;2024-02-28T05:19:09;6.20;99.90
6379;DHT22;3222;48.858;10.128;2024-02-28T05:21:41;6.20;99.90
6379;DHT22;3222;48.858;10.128;2024-02-28T05:24:08;6.20;99.90
6379;DHT22;3222;48.858;10.128;2024-02-28T05:26:35;6.20;99.90
6379;DHT22;3222;48.858;10.128;2024-02-28T05:29:01;6.20;99.90
6379;DHT22;3222;48.858;10.128;2024-02-28T05:31:27;6.20;99.90
6379;DHT22;3222;48.858;10.128;2024-02-28T05:33:54;6.30;99.90
6379;DHT22;3222;48.858;10.128;2024-02-28T05:36:23;6.30;99.90
6379;DHT22;3222;48.858;10.128;2024-02-28T05:38:50;6.30;99.90
6379;DHT22;3222;48.858;10.128;2024-02-28T05:41:19;6.20;99.90
6379;DHT22;3222;48.858;10.128;2024-02-28T05:43:46;6.30;99.90
6379;DHT22;3222;48.858;10.128;2024-02-28T05:46:12;6.20;99.90
6379;DHT22;3222;48.858;10.128;2024-02-28T05:48:40;6.20;99.90
6379;DHT22;3222;48.858;10.128;2024-02-28T05:51:06;6.20;99.90
6379;DHT22;3222;48.858;10.128;2024-02-28T05:53:31;6.10;99.90
6379;DHT22;3222;48.858;10.128;2024-02-28T05:56:01;6.10;99.90
6379;DHT22;3222;48.858;10.128;2024-02-28T05:58:27;6.20;99.90
6379;DHT22;3222;48.858;10.128;2024-02-28T06:00:53;6.20;99.90
6379;DHT22;3222;48.858;10.128;2024-02-28T06:03:19;6.20;99.90
6379;DHT22;3222;48.858;10.128;2024-02-28T06:05:45;6.20;99.90
6379;DHT22;3222;48.858;10.128;2024-02-28T06:08:12;6.20;99.90
6379;DHT22;3222;48.858;10.128;2024-02-28T06:10:38;6.20;99.90
6379;DHT22;3222;48.858;10.128;2024-02-28T06:13:03;6.20;99.90
6379;DHT22;3222;48.858;10.128;2024-02-28T06:15:29;6.20;99.90
6379;DHT22;3222;48.858;10.128;2024-02-28T06:17:58;6.10;99.90
6379;DHT22;3222;48.858;10.128;2024-02-28T06:20:26;6.00;99.90
6379;DHT22;3222;48.858;10.128;2024-02-28T06:22:52;6.00;99.90
6379;DHT22;3222;48.858;10.128;2024-02-28T06:25:18;6.00;99.90
6379;DHT22;3222;48.858;10.128;2024-02-28T06:27:45;6.10;99.90
6379;DHT22;3222;48.858;10.128;2024-02-28T06:30:11;6.10;99.90
6379;DHT22;3222;48.858;10.128;2024-02-28T06:32:40;6.10;99.90
6379;DHT22;3222;48.858;10.128;2024-02-28T06:35:09;6.10;99.90
6379;DHT22;3222;48.858;10.128;2024-02-28T06:37:35;6.00;99.90
6379;DHT22;3222;48.858;10.128;2024-02-28T06:40:02;6.00;99.90
6379;DHT22;3222;48.858;10.128;2024-02-28T06:42:29;6.00;99.90
6379;DHT22;3222;48.858;10.128;2024-02-28T06:44:55;6.00;99.90
6379;DHT22;3222;48.858;10.128;2024-02-28T06:47:21;6.10;99.90
6379;DHT22;3222;48.858;10.128;2024-02-28T06:49:47;6.10;99.90
6379;DHT22;3222;48.858;10.128;2024-02-28T06:52:14;6.10;99.90
6379;DHT22;3222;48.858;10.128;2024-02-28T06:54:40;6.00;99.90
6379;DHT22;3222;48.858;10.128;2024-02-28T06:57:05;6.10;99.90
6379;DHT22;3222;48.858;10.128;2024-02-28T06:59:31;6.10;99.90
6379;DHT22;3222;48.858;10.128;2024-02-28T07:01:57;6.10;99.90
6379;DHT22;3222;48.858;10.128;2024-02-28T07:04:22;6.10;99.90
6379;DHT22;3222;48.858;10.128;2024-02-28T07:06:48;6.10;99.90
6379;DHT22;3222;48.858;10.128;2024-02-28T07:09:14;6.10;99.90
6379;DHT22;3222;48.858;10.128;2024-02-28T07:11:41;6.10;99.90
6379;DHT22;3222;48.858;10.128;2024-02-28T07:14:06;6.00;99.90
6379;DHT22;3222;48.858;10.128;2024-02-28T07:16:32;6.00;99.90
6379;DHT22;3222;48.858;10.128;2024-02-28T07:19:00;6.00;99.90
6379;DHT22;3222;48.858;10.128;2024-02-28T07:21:26;6.00;99.90
6379;DHT22;3222;48.858;10.128;2024-02-28T07:23:51;6.00;99.90
6379;DHT22;3222;48.858;10.128;2024-02-28T07:26:17;5.90;99.90
6379;DHT22;3222;48.858;10.128;2024-02-28T07:28:43;6.00;99.90
6379;DHT22;3222;48.858;10.128;2024-02-28T07:31:21;6.00;99.90
6379;DHT22;3222;48.858;10.128;2024-02-28T07:33:47;6.00;99.90
6379;DHT22;3222;48.858;10.128;2024-02-28T07:36:13;6.00;99.90
6379;DHT22;3222;48.858;10.128;2024-02-28T07:38:41;6.10;99.90
6379;DHT22;3222;48.858;10.128;2024-02-28T07:41:07;6.10;99.90
6379;DHT22;3222;48.858;10.128;2024-02-28T07:43:33;6.10;99.90
6379;DHT22;3222;48.858;10.128;2024-02-28T07:46:11;6.00;99.90
6379;DHT22;3222;48.858;10.128;2024-02-28T07:48:40;6.00;99.90
6379;DHT22;3222;48.858;10.128;2024-02-28T07:51:07;5.90;99.90
6379;DHT22;3222;48.858;10.128;2024-02-28T07:53:33;5.90;99.90
6379;DHT22;3222;48.858;10.128;2024-02-28T07:55:59;5.80;99.90
6379;DHT22;3222;48.858;10.128;2024-02-28T07:58:25;5.80;99.90
6379;DHT22;3222;48.858;10.128;2024-02-28T08:00:51;5.80;99.90
6379;DHT22;3222;48.858;10.128;2024-02-28T08:03:18;5.70;99.90
6379;DHT22;3222;48.858;10.128;2024-02-28T08:05:44;5.70;99.90
6379;DHT22;3222;48.858;10.128;2024-02-28T08:08:10;5.70;99.90
6379;DHT22;3222;48.858;10.128;2024-02-28T08:10:37;5.70;99.90
6379;DHT22;3222;48.858;10.128;2024-02-28T08:13:03;5.70;99.90
6379;DHT22;3222;48.858;10.128;2024-02-28T08:15:29;5.70;99.90
6379;DHT22;3222;48.858;10.128;2024-02-28T08:17:55;5.60;99.90
6379;DHT22;3222;48.858;10.128;2024-02-28T08:20:21;5.60;99.90
6379;DHT22;3222;48.858;10.128;2024-02-28T08:22:47;5.70;99.90
6379;DHT22;3222;48.858;10.128;2024-02-28T08:25:13;5.70;99.90
6379;DHT22;3222;48.858;10.128;2024-02-28T08:27:39;5.60;99.90
6379;DHT22;3222;48.858;10.128;2024-02-28T08:30:05;5.60;99.90
6379;DHT22;3222;48.858;10.128;2024-02-28T08:32:32;5.60;99.90
6379;DHT22;3222;48.858;10.128;2024-02-28T08:34:58;5.60;99.90
6379;DHT22;3222;48.858;10.128;2024-02-28T08:37:27;5.60;99.90
6379;DHT22;3222;48.858;10.128;2024-02-28T08:39:55;5.60;99.90
6379;DHT22;3222;48.858;10.128;2024-02-28T08:42:27;5.70;99.90
6379;DHT22;3222;48.858;10.128;2024-02-28T08:44:53;5.70;99.90
6379;DHT22;3222;48.858;10.128;2024-02-28T08:47:25;5.70;99.90
6379;DHT22;3222;48.858;10.128;2024-02-28T08:49:52;5.70;99.90
6379;DHT22;3222;48.858;10.128;2024-02-28T08:52:18;5.70;99.90
6379;DHT22;3222;48.858;10.128;2024-02-28T08:54:43;5.80;99.90
6379;DHT22;3222;48.858;10.128;2024-02-28T08:57:10;5.80;99.90
6379;DHT22;3222;48.858;10.128;2024-02-28T08:59:35;5.90;99.90
6379;DHT22;3222;48.858;10.128;2024-02-28T09:02:01;5.90;99.90
6379;DHT22;3222;48.858;10.128;2024-02-28T09:04:27;5.80;99.90
6379;DHT22;3222;48.858;10.128;2024-02-28T09:06:52;5.90;99.90
6379;DHT22;3222;48.858;10.128;2024-02-28T09:09:21;5.80;99.90
6379;DHT22;3222;48.858;10.128;2024-02-28T09:11:46;5.80;99.90
6379;DHT22;3222;48.858;10.128;2024-02-28T09:14:12;5.80;99.90
6379;DHT22;3222;48.858;10.128;2024-02-28T09:16:38;5.80;99.90
6379;DHT22;3222;48.858;10.128;2024-02-28T09:19:04;5.90;99.90
6379;DHT22;3222;48.858;10.128;2024-02-28T09:21:30;5.90;99.90
6379;DHT22;3222;48.858;10.128;2024-02-28T09:23:56;5.90;99.90
6379;DHT22;3222;48.858;10.128;2024-02-28T09:26:21;5.80;99.90
6379;DHT22;3222;48.858;10.128;2024-02-28T09:28:47;5.80;99.90
6379;DHT22;3222;48.858;10.128;2024-02-28T09:31:13;5.80;99.90
6379;DHT22;3222;48.858;10.128;2024-02-28T09:33:41;5.80;99.90
6379;DHT22;3222;48.858;10.128;2024-02-28T09:36:06;5.80;99.90
6379;DHT22;3222;48.858;10.128;2024-02-28T09:38:32;5.80;99.90
6379;DHT22;3222;48.858;10.128;2024-02-28T09:41:01;5.80;99.90
6379;DHT22;3222;48.858;10.128;2024-02-28T09:43:31;5.80;99.90
6379;DHT22;3222;48.858;10.128;2024-02-28T09:46:04;5.80;99.90
6379;DHT22;3222;48.858;10.128;2024-02-28T09:48:30;5.80;99.90
6379;DHT22;3222;48.858;10.128;2024-02-28T09:51:00;5.70;99.90
6379;DHT22;3222;48.858;10.128;2024-02-28T09:53:29;5.70;99.90
6379;DHT22;3222;48.858;10.128;2024-02-28T09:55:54;5.70;99.90
6379;DHT22;3222;48.858;10.128;2024-02-28T09:58:20;5.70;99.90
6379;DHT22;3222;48.858;10.128;2024-02-28T10:00:49;5.60;99.90
6379;DHT22;3222;48.858;10.128;2024-02-28T10:03:18;5.70;99.90
6379;DHT22;3222;48.858;10.128;2024-02-28T10:05:49;5.70;99.90
6379;DHT22;3222;48.858;10.128;2024-02-28T10:08:15;5.70;99.90
6379;DHT22;3222;48.858;10.128;2024-02-28T10:10:49;5.70;99.90
6379;DHT22;3222;48.858;10.128;2024-02-28T10:13:20;5.70;99.90
6379;DHT22;3222;48.858;10.128;2024-02-28T10:15:45;5.70;99.90
6379;DHT22;3222;48.858;10.128;2024-02-28T10:18:11;5.70;99.90
6379;DHT22;3222;48.858;10.128;2024-02-28T10:20:37;5.80;99.90
6379;DHT22;3222;48.858;10.128;2024-02-28T10:23:07;5.70;99.90
6379;DHT22;3222;48.858;10.128;2024-02-28T10:25:42;5.80;99.90
6379;DHT22;3222;48.858;10.128;2024-02-28T10:28:09;5.70;99.90
6379;DHT22;3222;48.858;10.128;2024-02-28T10:30:41;5.70;99.90
6379;DHT22;3222;48.858;10.128;2024-02-28T10:33:15;5.70;99.90
6379;DHT22;3222;48.858;10.128;2024-02-28T10:35:42;5.70;99.90
6379;DHT22;3222;48.858;10.128;2024-02-28T10:38:10;5.70;99.90
6379;DHT22;3222;48.858;10.128;2024-02-28T10:40:36;5.70;99.90
6379;DHT22;3222;48.858;10.128;2024-02-28T10:43:03;5.70;99.90
6379;DHT22;3222;48.858;10.128;2024-02-28T10:45:31;5.70;99.90
6379;DHT22;3222;48.858;10.128;2024-02-28T10:47:57;5.70;99.90
6379;DHT22;3222;48.858;10.128;2024-02-28T10:50:23;5.70;99.90
6379;DHT22;3222;48.858;10.128;2024-02-28T10:52:49;5.70;99.90
6379;DHT22;3222;48.858;10.128;2024-02-28T10:55:22;5.70;99.90
6379;DHT22;3222;48.858;10.128;2024-02-28T10:58:01;5.70;99.90
6379;DHT22;3222;48.858;10.128;2024-02-28T11:00:28;5.70;99.90
6379;DHT22;3222;48.858;10.128;2024-02-28T11:02:56;5.80;99.90
6379;DHT22;3222;48.858;10.128;2024-02-28T11:05:22;5.80;99.90
6379;DHT22;3222;48.858;10.128;2024-02-28T11:07:51;5.80;99.90
6379;DHT22;3222;48.858;10.128;2024-02-28T11:10:18;5.80;99.90
6379;DHT22;3222;48.858;10.128;2024-02-28T11:12:43;5.80;99.90
6379;DHT22;3222;48.858;10.128;2024-02-28T11:15:19;5.80;99.90
6379;DHT22;3222;48.858;10.128;2024-02-28T11:17:45;5.80;99.90
6379;DHT22;3222;48.858;10.128;2024-02-28T11:20:12;5.90;99.90
6379;DHT22;3222;48.858;10.128;2024-02-28T11:22:39;5.90;99.90
6379;DHT22;3222;48.858;10.128;2024-02-28T11:25:05;5.80;99.90
6379;DHT22;3222;48.858;10.128;2024-02-28T11:27:31;5.90;99.90
6379;DHT22;3222;48.858;10.128;2024-02-28T11:29:57;5.90;99.90
6379;DHT22;3222;48.858;10.128;2024-02-28T11:32:26;5.90;99.90
6379;DHT22;3222;48.858;10.128;2024-02-28T11:34:51;5.90;99.90
6379;DHT22;3222;48.858;10.128;2024-02-28T11:37:18;6.00;99.90
6379;DHT22;3222;48.858;10.128;2024-02-28T11:39:47;5.90;99.90
6379;DHT22;3222;48.858;10.128;2024-02-28T11:42:15;5.90;99.90
6379;DHT22;3222;48.858;10.128;2024-02-28T11:44:42;5.90;99.90
6379;DHT22;3222;48.858;10.128;2024-02-28T11:47:11;5.90;99.90
6379;DHT22;3222;48.858;10.128;2024-02-28T11:49:40;5.90;99.90
6379;DHT22;3222;48.858;10.128;2024-02-28T11:52:05;6.00;99.90
6379;DHT22;3222;48.858;10.128;2024-02-28T11:54:31;5.90;99.90
6379;DHT22;3222;48.858;10.128;2024-02-28T11:56:57;5.90;99.90
6379;DHT22;3222;48.858;10.128;2024-02-28T11:59:23;6.00;99.90
6379;DHT22;3222;48.858;10.128;2024-02-28T12:01:49;6.00;99.90
6379;DHT22;3222;48.858;10.128;2024-02-28T12:04:16;6.00;99.90
6379;DHT22;3222;48.858;10.128;2024-02-28T12:06:41;6.00;99.90
6379;DHT22;3222;48.858;10.128;2024-02-28T12:09:09;6.00;99.90
6379;DHT22;3222;48.858;10.128;2024-02-28T12:11:36;6.00;99.90
6379;DHT22;3222;48.858;10.128;2024-02-28T12:14:09;6.00;99.90
6379;DHT22;3222;48.858;10.128;2024-02-28T12:16:38;6.00;99.90
6379;DHT22;3222;48.858;10.128;2024-02-28T12:19:12;6.00;99.90
6379;DHT22;3222;48.858;10.128;2024-02-28T12:21:39;6.10;99.90
6379;DHT22;3222;48.858;10.128;2024-02-28T12:24:07;6.10;99.90
6379;DHT22;3222;48.858;10.128;2024-02-28T12:26:34;6.10;99.90
6379;DHT22;3222;48.858;10.128;2024-02-28T12:29:00;6.10;99.90
6379;DHT22;3222;48.858;10.128;2024-02-28T12:31:27;6.10;99.90
6379;DHT22;3222;48.858;10.128;2024-02-28T12:33:52;6.10;99.90
6379;DHT22;3222;48.858;10.128;2024-02-28T12:36:19;6.00;99.90
6379;DHT22;3222;48.858;10.128;2024-02-28T12:38:45;6.00;99.90
6379;DHT22;3222;48.858;10.128;2024-02-28T12:41:11;6.00;99.90
6379;DHT22;3222;48.858;10.128;2024-02-28T12:43:36;6.10;99.90
6379;DHT22;3222;48.858;10.128;2024-02-28T12:46:02;6.00;99.90
6379;DHT22;3222;48.858;10.128;2024-02-28T12:48:28;6.10;99.90
6379;DHT22;3222;48.858;10.128;2024-02-28T12:50:55;6.00;99.90
6379;DHT22;3222;48.858;10.128;2024-02-28T12:53:20;6.10;99.90
6379;DHT22;3222;48.858;10.128;2024-02-28T12:55:46;6.10;99.90
6379;DHT22;3222;48.858;10.128;2024-02-28T12:58:11;6.10;99.90
6379;DHT22;3222;48.858;10.128;2024-02-28T13:00:37;6.20;99.90
6379;DHT22;3222;48.858;10.128;2024-02-28T13:03:03;6.20;99.90
6379;DHT22;3222;48.858;10.128;2024-02-28T13:05:29;6.10;99.90
6379;DHT22;3222;48.858;10.128;2024-02-28T13:07:55;6.10;99.90
6379;DHT22;3222;48.858;10.128;2024-02-28T13:10:21;6.10;99.90
6379;DHT22;3222;48.858;10.128;2024-02-28T13:12:47;6.20;99.90
6379;DHT22;3222;48.858;10.128;2024-02-28T13:15:13;6.30;99.90
6379;DHT22;3222;48.858;10.128;2024-02-28T13:17:39;6.20;99.90
6379;DHT22;3222;48.858;10.128;2024-02-28T13:20:07;6.20;99.90
6379;DHT22;3222;48.858;10.128;2024-02-28T13:22:33;6.20;99.90
6379;DHT22;3222;48.858;10.128;2024-02-28T13:24:59;6.20;99.90
6379;DHT22;3222;48.858;10.128;2024-02-28T13:27:26;6.20;99.90
6379;DHT22;3222;48.858;10.128;2024-02-28T13:29:52;6.20;99.90
6379;DHT22;3222;48.858;10.128;2024-02-28T13:32:17;6.20;99.90
6379;DHT22;3222;48.858;10.128;2024-02-28T13:34:43;6.20;99.90
6379;DHT22;3222;48.858;10.128;2024-02-28T13:37:09;6.20;99.90
6379;DHT22;3222;48.858;10.128;2024-02-28T13:39:35;6.20;99.90
6379;DHT22;3222;48.858;10.128;2024-02-28T13:42:00;6.20;99.90
6379;DHT22;3222;48.858;10.128;2024-02-28T13:44:28;6.20;99.90
6379;DHT22;3222;48.858;10.128;2024-02-28T13:46:54;6.20;99.90
6379;DHT22;3222;48.858;10.128;2024-02-28T13:49:20;6.20;99.90
6379;DHT22;3222;48.858;10.128;2024-02-28T13:51:46;6.20;99.90
6379;DHT22;3222;48.858;10.128;2024-02-28T13:54:12;6.20;99.90
6379;DHT22;3222;48.858;10.128;2024-02-28T13:56:37;6.10;99.90
6379;DHT22;3222;48.858;10.128;2024-02-28T13:59:03;6.10;99.90
6379;DHT22;3222;48.858;10.128;2024-02-28T14:01:29;6.20;99.90
6379;DHT22;3222;48.858;10.128;2024-02-28T14:03:54;6.20;99.90
6379;DHT22;3222;48.858;10.128;2024-02-28T14:06:20;6.20;99.90
6379;DHT22;3222;48.858;10.128;2024-02-28T14:08:46;6.20;99.90
6379;DHT22;3222;48.858;10.128;2024-02-28T14:11:11;6.20;99.90
6379;DHT22;3222;48.858;10.128;2024-02-28T14:13:37;6.20;99.90
6379;DHT22;3222;48.858;10.128;2024-02-28T14:16:05;6.30;99.90
6379;DHT22;3222;48.858;10.128;2024-02-28T14:18:31;6.30;99.90
6379;DHT22;3222;48.858;10.128;2024-02-28T14:20:57;6.30;99.90
6379;DHT22;3222;48.858;10.128;2024-02-28T14:23:22;6.30;99.90
6379;DHT22;3222;48.858;10.128;2024-02-28T14:25:48;6.30;99.90
6379;DHT22;3222;48.858;10.128;2024-02-28T14:28:14;6.30;99.90
6379;DHT22;3222;48.858;10.128;2024-02-28T14:30:39;6.20;99.90
6379;DHT22;3222;48.858;10.128;2024-02-28T14:33:05;6.30;99.90
6379;DHT22;3222;48.858;10.128;2024-02-28T14:35:32;6.30;99.90
6379;DHT22;3222;48.858;10.128;2024-02-28T14:37:57;6.30;99.90
6379;DHT22;3222;48.858;10.128;2024-02-28T14:40:23;6.30;99.90
6379;DHT22;3222;48.858;10.128;2024-02-28T14:42:49;6.30;99.90
6379;DHT22;3222;48.858;10.128;2024-02-28T14:45:14;6.40;99.90
6379;DHT22;3222;48.858;10.128;2024-02-28T14:47:41;6.30;99.90
6379;DHT22;3222;48.858;10.128;2024-02-28T14:50:07;6.20;99.90
6379;DHT22;3222;48.858;10.128;2024-02-28T14:52:38;6.20;99.90
6379;DHT22;3222;48.858;10.128;2024-02-28T14:55:06;6.20;99.90
6379;DHT22;3222;48.858;10.128;2024-02-28T14:57:33;6.20;99.90
6379;DHT22;3222;48.858;10.128;2024-02-28T14:59:59;6.30;99.90
6379;DHT22;3222;48.858;10.128;2024-02-28T15:02:24;6.30;99.90
6379;DHT22;3222;48.858;10.128;2024-02-28T15:04:50;6.20;99.90
6379;DHT22;3222;48.858;10.128;2024-02-28T15:07:16;6.20;99.90
6379;DHT22;3222;48.858;10.128;2024-02-28T15:09:42;6.20;99.90
6379;DHT22;3222;48.858;10.128;2024-02-28T15:12:08;6.20;99.90
6379;DHT22;3222;48.858;10.128;2024-02-28T15:14:34;6.10;99.90
6379;DHT22;3222;48.858;10.128;2024-02-28T15:17:00;6.10;99.90
6379;DHT22;3222;48.858;10.128;2024-02-28T15:19:27;6.10;99.90
6379;DHT22;3222;48.858;10.128;2024-02-28T15:21:54;6.20;99.90
6379;DHT22;3222;48.858;10.128;2024-02-28T15:24:21;6.20;99.90
6379;DHT22;3222;48.858;10.128;2024-02-28T15:26:47;6.20;99.90
6379;DHT22;3222;48.858;10.128;2024-02-28T15:29:13;6.10;99.90
6379;DHT22;3222;48.858;10.128;2024-02-28T15:31:39;6.10;99.90
6379;DHT22;3222;48.858;10.128;2024-02-28T15:34:05;6.10;99.90
6379;DHT22;3222;48.858;10.128;2024-02-28T15:36:31;6.10;99.90
6379;DHT22;3222;48.858;10.128;2024-02-28T15:38:56;6.10;99.90
6379;DHT22;3222;48.858;10.128;2024-02-28T15:41:22;6.20;99.90
6379;DHT22;3222;48.858;10.128;2024-02-28T15:43:49;6.20;99.90
6379;DHT22;3222;48.858;10.128;2024-02-28T15:46:15;6.10;99.90
6379;DHT22;3222;48.858;10.128;2024-02-28T15:48:41;6.10;99.90
6379;DHT22;3222;48.858;10.128;2024-02-28T15:51:07;6.10;99.90
6379;DHT22;3222;48.858;10.128;2024-02-28T15:53:33;6.20;99.90
6379;DHT22;3222;48.858;10.128;2024-02-28T15:56:00;6.20;99.90